sensor_id;sensor_type;location;lat;lon;timestamp;P1;durP1;ratioP1;P2;durP2;ratioP2
21727;SDS011;11026;50.560;17.852;2024-03-02T00:00:49;157.88;;;100.63;;
21727;SDS011;11026;50.560;17.852;2024-03-02T00:03:18;158.25;;;100.13;;
21727;SDS011;11026;50.560;17.852;2024-03-02T00:05:50;154.57;;;98.00;;
21727;SDS011;11026;50.560;17.852;2024-03-02T00:08:24;149.27;;;96.20;;
21727;SDS011;11026;50.560;17.852;2024-03-02T00:10:59;153.02;;;95.65;;
21727;SDS011;11026;50.560;17.852;2024-03-02T00:13:31;148.65;;;91.70;;
21727;SDS011;11026;50.560;17.852;2024-03-02T00:16:01;142.70;;;93.78;;
21727;SDS011;11026;50.560;17.852;2024-03-02T00:18:33;148.70;;;93.43;;
21727;SDS011;11026;50.560;17.852;2024-03-02T00:21:05;139.13;;;93.28;;
21727;SDS011;11026;50.560;17.852;2024-03-02T00:23:37;149.00;;;92.00;;
21727;SDS011;11026;50.560;17.852;2024-03-02T00:26:05;144.98;;;90.95;;
21727;SDS011;11026;50.560;17.852;2024-03-02T00:28:33;142.75;;;90.93;;
21727;SDS011;11026;50.560;17.852;2024-03-02T00:33:40;143.35;;;90.15;;
21727;SDS011;11026;50.560;17.852;2024-03-02T00:36:09;142.55;;;91.13;;
21727;SDS011;11026;50.560;17.852;2024-03-02T00:38:46;140.40;;;88.63;;
21727;SDS011;11026;50.560;17.852;2024-03-02T00:44:09;143.25;;;90.45;;
21727;SDS011;11026;50.560;17.852;2024-03-02T00:46:40;141.00;;;90.20;;
21727;SDS011;11026;50.560;17.852;2024-03-02T00:49:18;141.55;;;88.75;;
21727;SDS011;11026;50.560;17.852;2024-03-02T00:51:50;140.43;;;88.20;;
21727;SDS011;11026;50.560;17.852;2024-03-02T00:54:27;142.32;;;87.22;;
21727;SDS011;11026;50.560;17.852;2024-03-02T00:56:57;136.10;;;85.63;;
21727;SDS011;11026;50.560;17.852;2024-03-02T00:59:24;139.20;;;85.20;;
21727;SDS011;11026;50.560;17.852;2024-03-02T01:01:52;137.32;;;86.00;;
21727;SDS011;11026;50.560;17.852;2024-03-02T01:04:19;128.68;;;83.90;;
21727;SDS011;11026;50.560;17.852;2024-03-02T01:06:46;134.70;;;84.63;;
21727;SDS011;11026;50.560;17.852;2024-03-02T01:09:13;128.95;;;84.75;;
21727;SDS011;11026;50.560;17.852;2024-03-02T01:11:41;132.93;;;85.15;;
21727;SDS011;11026;50.560;17.852;2024-03-02T01:14:08;128.10;;;83.63;;
21727;SDS011;11026;50.560;17.852;2024-03-02T01:16:36;128.70;;;83.43;;
21727;SDS011;11026;50.560;17.852;2024-03-02T01:19:03;129.32;;;84.88;;
21727;SDS011;11026;50.560;17.852;2024-03-02T01:21:31;124.80;;;83.63;;
21727;SDS011;11026;50.560;17.852;2024-03-02T01:23:58;128.32;;;84.57;;
21727;SDS011;11026;50.560;17.852;2024-03-02T01:26:26;134.32;;;84.20;;
21727;SDS011;11026;50.560;17.852;2024-03-02T01:28:54;131.20;;;83.80;;
21727;SDS011;11026;50.560;17.852;2024-03-02T01:31:21;125.55;;;80.32;;
21727;SDS011;11026;50.560;17.852;2024-03-02T01:33:48;131.35;;;84.47;;
21727;SDS011;11026;50.560;17.852;2024-03-02T01:36:16;126.15;;;82.53;;
21727;SDS011;11026;50.560;17.852;2024-03-02T01:41:16;137.63;;;85.03;;
21727;SDS011;11026;50.560;17.852;2024-03-02T01:43:43;135.45;;;86.97;;
21727;SDS011;11026;50.560;17.852;2024-03-02T01:46:10;126.68;;;84.40;;
21727;SDS011;11026;50.560;17.852;2024-03-02T01:48:37;132.00;;;86.25;;
21727;SDS011;11026;50.560;17.852;2024-03-02T01:51:04;129.65;;;84.15;;
21727;SDS011;11026;50.560;17.852;2024-03-02T01:56:04;125.72;;;81.00;;
21727;SDS011;11026;50.560;17.852;2024-03-02T01:58:31;131.52;;;83.85;;
21727;SDS011;11026;50.560;17.852;2024-03-02T02:00:59;124.47;;;82.90;;
21727;SDS011;11026;50.560;17.852;2024-03-02T02:03:26;127.70;;;80.90;;
21727;SDS011;11026;50.560;17.852;2024-03-02T02:05:54;126.32;;;81.78;;
21727;SDS011;11026;50.560;17.852;2024-03-02T02:08:21;128.20;;;83.18;;
21727;SDS011;11026;50.560;17.852;2024-03-02T02:10:48;130.63;;;84.07;;
21727;SDS011;11026;50.560;17.852;2024-03-02T02:13:16;131.32;;;83.70;;
21727;SDS011;11026;50.560;17.852;2024-03-02T02:15:43;127.57;;;82.93;;
21727;SDS011;11026;50.560;17.852;2024-03-02T02:18:10;131.27;;;84.25;;
21727;SDS011;11026;50.560;17.852;2024-03-02T02:20:39;129.05;;;83.72;;
21727;SDS011;11026;50.560;17.852;2024-03-02T02:23:07;130.55;;;84.35;;
21727;SDS011;11026;50.560;17.852;2024-03-02T02:25:37;134.15;;;84.65;;
21727;SDS011;11026;50.560;17.852;2024-03-02T02:28:06;144.40;;;87.03;;
21727;SDS011;11026;50.560;17.852;2024-03-02T02:30:33;131.80;;;84.30;;
21727;SDS011;11026;50.560;17.852;2024-03-02T02:33:00;134.63;;;85.00;;
21727;SDS011;11026;50.560;17.852;2024-03-02T02:35:28;133.23;;;85.90;;
21727;SDS011;11026;50.560;17.852;2024-03-02T02:37:57;135.25;;;87.68;;
21727;SDS011;11026;50.560;17.852;2024-03-02T02:40:27;144.55;;;90.35;;
21727;SDS011;11026;50.560;17.852;2024-03-02T02:42:57;140.23;;;88.88;;
21727;SDS011;11026;50.560;17.852;2024-03-02T02:45:27;131.07;;;88.50;;
21727;SDS011;11026;50.560;17.852;2024-03-02T02:47:55;140.30;;;87.82;;
21727;SDS011;11026;50.560;17.852;2024-03-02T02:50:24;143.40;;;92.30;;
21727;SDS011;11026;50.560;17.852;2024-03-02T02:52:52;134.70;;;89.13;;
21727;SDS011;11026;50.560;17.852;2024-03-02T02:55:20;137.77;;;91.25;;
21727;SDS011;11026;50.560;17.852;2024-03-02T02:57:47;148.27;;;92.18;;
21727;SDS011;11026;50.560;17.852;2024-03-02T03:00:15;138.85;;;91.13;;
21727;SDS011;11026;50.560;17.852;2024-03-02T03:02:46;147.02;;;92.32;;
21727;SDS011;11026;50.560;17.852;2024-03-02T03:05:17;144.18;;;91.78;;
21727;SDS011;11026;50.560;17.852;2024-03-02T03:07:45;137.82;;;89.93;;
21727;SDS011;11026;50.560;17.852;2024-03-02T03:10:13;145.05;;;91.30;;
21727;SDS011;11026;50.560;17.852;2024-03-02T03:12:42;145.18;;;91.45;;
21727;SDS011;11026;50.560;17.852;2024-03-02T03:15:11;137.35;;;88.60;;
21727;SDS011;11026;50.560;17.852;2024-03-02T03:20:09;137.10;;;91.80;;
21727;SDS011;11026;50.560;17.852;2024-03-02T03:22:38;144.63;;;91.13;;
21727;SDS011;11026;50.560;17.852;2024-03-02T03:27:36;141.25;;;88.80;;
21727;SDS011;11026;50.560;17.852;2024-03-02T03:30:03;139.95;;;88.35;;
21727;SDS011;11026;50.560;17.852;2024-03-02T03:32:35;141.48;;;89.85;;
21727;SDS011;11026;50.560;17.852;2024-03-02T03:37:35;137.70;;;89.80;;
21727;SDS011;11026;50.560;17.852;2024-03-02T03:40:03;137.85;;;90.10;;
21727;SDS011;11026;50.560;17.852;2024-03-02T03:45:08;140.02;;;89.10;;
21727;SDS011;11026;50.560;17.852;2024-03-02T03:47:36;142.98;;;92.32;;
21727;SDS011;11026;50.560;17.852;2024-03-02T03:50:07;147.60;;;92.40;;
21727;SDS011;11026;50.560;17.852;2024-03-02T03:52:35;136.75;;;91.65;;
21727;SDS011;11026;50.560;17.852;2024-03-02T03:55:04;143.27;;;90.32;;
21727;SDS011;11026;50.560;17.852;2024-03-02T03:57:33;144.43;;;91.72;;
21727;SDS011;11026;50.560;17.852;2024-03-02T04:00:03;141.70;;;92.43;;
21727;SDS011;11026;50.560;17.852;2024-03-02T04:05:02;140.68;;;90.28;;
21727;SDS011;11026;50.560;17.852;2024-03-02T04:10:08;138.80;;;88.85;;
21727;SDS011;11026;50.560;17.852;2024-03-02T04:12:37;143.40;;;90.35;;
21727;SDS011;11026;50.560;17.852;2024-03-02T04:15:05;138.38;;;87.55;;
21727;SDS011;11026;50.560;17.852;2024-03-02T04:17:35;137.40;;;89.28;;
21727;SDS011;11026;50.560;17.852;2024-03-02T04:20:03;136.68;;;88.88;;
21727;SDS011;11026;50.560;17.852;2024-03-02T04:22:33;135.10;;;89.47;;
21727;SDS011;11026;50.560;17.852;2024-03-02T04:25:02;130.88;;;85.40;;
21727;SDS011;11026;50.560;17.852;2024-03-02T04:27:32;137.02;;;88.00;;
21727;SDS011;11026;50.560;17.852;2024-03-02T04:30:00;136.82;;;87.60;;
21727;SDS011;11026;50.560;17.852;2024-03-02T04:32:27;133.18;;;84.07;;
21727;SDS011;11026;50.560;17.852;2024-03-02T04:34:54;129.38;;;84.18;;
21727;SDS011;11026;50.560;17.852;2024-03-02T04:39:55;131.63;;;83.25;;
21727;SDS011;11026;50.560;17.852;2024-03-02T04:42:22;131.27;;;83.55;;
21727;SDS011;11026;50.560;17.852;2024-03-02T04:44:51;131.32;;;84.82;;
21727;SDS011;11026;50.560;17.852;2024-03-02T04:47:18;143.50;;;87.57;;
21727;SDS011;11026;50.560;17.852;2024-03-02T04:49:47;134.60;;;82.75;;
21727;SDS011;11026;50.560;17.852;2024-03-02T04:52:15;139.23;;;84.35;;
21727;SDS011;11026;50.560;17.852;2024-03-02T04:54:44;130.38;;;84.32;;
21727;SDS011;11026;50.560;17.852;2024-03-02T04:57:24;125.30;;;83.15;;
21727;SDS011;11026;50.560;17.852;2024-03-02T04:59:53;133.95;;;84.82;;
21727;SDS011;11026;50.560;17.852;2024-03-02T05:02:20;127.93;;;82.10;;
21727;SDS011;11026;50.560;17.852;2024-03-02T05:04:47;127.20;;;81.70;;
21727;SDS011;11026;50.560;17.852;2024-03-02T05:07:15;139.98;;;85.03;;
21727;SDS011;11026;50.560;17.852;2024-03-02T05:09:42;124.78;;;81.03;;
21727;SDS011;11026;50.560;17.852;2024-03-02T05:12:09;126.75;;;82.40;;
21727;SDS011;11026;50.560;17.852;2024-03-02T05:14:50;128.38;;;83.30;;
21727;SDS011;11026;50.560;17.852;2024-03-02T05:17:18;133.75;;;83.18;;
21727;SDS011;11026;50.560;17.852;2024-03-02T05:19:45;129.65;;;80.63;;
21727;SDS011;11026;50.560;17.852;2024-03-02T05:24:48;127.93;;;84.82;;
21727;SDS011;11026;50.560;17.852;2024-03-02T05:27:16;134.77;;;82.63;;
21727;SDS011;11026;50.560;17.852;2024-03-02T05:29:43;129.48;;;83.88;;
21727;SDS011;11026;50.560;17.852;2024-03-02T05:32:11;135.80;;;84.47;;
21727;SDS011;11026;50.560;17.852;2024-03-02T05:34:38;134.30;;;85.03;;
21727;SDS011;11026;50.560;17.852;2024-03-02T05:37:05;133.13;;;85.47;;
21727;SDS011;11026;50.560;17.852;2024-03-02T05:39:34;131.95;;;83.97;;
21727;SDS011;11026;50.560;17.852;2024-03-02T05:42:01;142.38;;;86.47;;
21727;SDS011;11026;50.560;17.852;2024-03-02T05:44:29;136.73;;;85.95;;
21727;SDS011;11026;50.560;17.852;2024-03-02T05:46:56;130.15;;;84.25;;
21727;SDS011;11026;50.560;17.852;2024-03-02T05:49:24;137.40;;;86.35;;
21727;SDS011;11026;50.560;17.852;2024-03-02T05:51:51;132.02;;;86.80;;
21727;SDS011;11026;50.560;17.852;2024-03-02T05:54:19;138.80;;;86.28;;
21727;SDS011;11026;50.560;17.852;2024-03-02T05:56:46;139.18;;;86.90;;
21727;SDS011;11026;50.560;17.852;2024-03-02T05:59:14;130.23;;;82.88;;
21727;SDS011;11026;50.560;17.852;2024-03-02T06:01:46;134.20;;;85.10;;
21727;SDS011;11026;50.560;17.852;2024-03-02T06:04:13;126.35;;;82.25;;
21727;SDS011;11026;50.560;17.852;2024-03-02T06:06:41;130.55;;;83.60;;
21727;SDS011;11026;50.560;17.852;2024-03-02T06:09:08;124.20;;;79.63;;
21727;SDS011;11026;50.560;17.852;2024-03-02T06:11:36;120.20;;;79.32;;
21727;SDS011;11026;50.560;17.852;2024-03-02T06:14:04;118.80;;;79.72;;
21727;SDS011;11026;50.560;17.852;2024-03-02T06:16:32;126.45;;;81.95;;
21727;SDS011;11026;50.560;17.852;2024-03-02T06:19:01;122.22;;;81.43;;
21727;SDS011;11026;50.560;17.852;2024-03-02T06:21:29;131.75;;;81.13;;
21727;SDS011;11026;50.560;17.852;2024-03-02T06:23:57;127.63;;;80.60;;
21727;SDS011;11026;50.560;17.852;2024-03-02T06:26:24;119.65;;;78.63;;
21727;SDS011;11026;50.560;17.852;2024-03-02T06:28:54;119.85;;;80.18;;
21727;SDS011;11026;50.560;17.852;2024-03-02T06:31:21;129.88;;;83.15;;
21727;SDS011;11026;50.560;17.852;2024-03-02T06:33:49;127.97;;;79.60;;
21727;SDS011;11026;50.560;17.852;2024-03-02T06:36:17;126.78;;;81.57;;
21727;SDS011;11026;50.560;17.852;2024-03-02T06:38:45;123.00;;;81.07;;
21727;SDS011;11026;50.560;17.852;2024-03-02T06:41:12;122.60;;;80.28;;
21727;SDS011;11026;50.560;17.852;2024-03-02T06:43:40;121.20;;;77.85;;
21727;SDS011;11026;50.560;17.852;2024-03-02T06:46:07;119.90;;;77.50;;
21727;SDS011;11026;50.560;17.852;2024-03-02T06:48:36;114.80;;;75.95;;
21727;SDS011;11026;50.560;17.852;2024-03-02T06:51:04;112.90;;;75.75;;
21727;SDS011;11026;50.560;17.852;2024-03-02T06:53:33;113.90;;;75.63;;
21727;SDS011;11026;50.560;17.852;2024-03-02T06:56:01;115.13;;;74.63;;
21727;SDS011;11026;50.560;17.852;2024-03-02T06:58:28;113.80;;;74.40;;
21727;SDS011;11026;50.560;17.852;2024-03-02T07:00:55;109.28;;;75.18;;
21727;SDS011;11026;50.560;17.852;2024-03-02T07:03:22;108.57;;;71.80;;
21727;SDS011;11026;50.560;17.852;2024-03-02T07:05:49;109.32;;;72.43;;
21727;SDS011;11026;50.560;17.852;2024-03-02T07:08:17;111.93;;;72.97;;
21727;SDS011;11026;50.560;17.852;2024-03-02T07:10:46;107.75;;;71.97;;
21727;SDS011;11026;50.560;17.852;2024-03-02T07:13:17;105.40;;;71.03;;
21727;SDS011;11026;50.560;17.852;2024-03-02T07:16:02;106.80;;;72.03;;
21727;SDS011;11026;50.560;17.852;2024-03-02T07:18:31;108.63;;;70.82;;
21727;SDS011;11026;50.560;17.852;2024-03-02T07:21:01;104.25;;;71.15;;
21727;SDS011;11026;50.560;17.852;2024-03-02T07:23:28;108.85;;;68.70;;
21727;SDS011;11026;50.560;17.852;2024-03-02T07:25:57;102.60;;;69.78;;
21727;SDS011;11026;50.560;17.852;2024-03-02T07:28:29;103.87;;;69.50;;
21727;SDS011;11026;50.560;17.852;2024-03-02T07:33:36;103.70;;;68.82;;
21727;SDS011;11026;50.560;17.852;2024-03-02T07:36:05;95.65;;;67.18;;
21727;SDS011;11026;50.560;17.852;2024-03-02T07:38:32;98.47;;;68.85;;
21727;SDS011;11026;50.560;17.852;2024-03-02T07:41:01;96.38;;;67.60;;
21727;SDS011;11026;50.560;17.852;2024-03-02T07:43:28;99.28;;;67.47;;
21727;SDS011;11026;50.560;17.852;2024-03-02T07:45:56;96.80;;;65.25;;
21727;SDS011;11026;50.560;17.852;2024-03-02T07:48:24;97.53;;;65.35;;
21727;SDS011;11026;50.560;17.852;2024-03-02T07:50:52;91.82;;;63.85;;
21727;SDS011;11026;50.560;17.852;2024-03-02T07:53:19;89.05;;;60.08;;
21727;SDS011;11026;50.560;17.852;2024-03-02T07:55:46;89.68;;;60.25;;
21727;SDS011;11026;50.560;17.852;2024-03-02T07:58:14;90.38;;;62.38;;
21727;SDS011;11026;50.560;17.852;2024-03-02T08:00:41;90.82;;;62.45;;
21727;SDS011;11026;50.560;17.852;2024-03-02T08:03:11;85.88;;;61.55;;
21727;SDS011;11026;50.560;17.852;2024-03-02T08:05:38;93.63;;;62.80;;
21727;SDS011;11026;50.560;17.852;2024-03-02T08:08:06;92.28;;;61.30;;
21727;SDS011;11026;50.560;17.852;2024-03-02T08:10:33;90.57;;;60.15;;
21727;SDS011;11026;50.560;17.852;2024-03-02T08:13:00;91.95;;;63.95;;
21727;SDS011;11026;50.560;17.852;2024-03-02T08:15:27;95.53;;;64.70;;
21727;SDS011;11026;50.560;17.852;2024-03-02T08:17:55;94.35;;;65.28;;
21727;SDS011;11026;50.560;17.852;2024-03-02T08:20:25;86.93;;;61.58;;
21727;SDS011;11026;50.560;17.852;2024-03-02T08:22:52;93.57;;;66.05;;
21727;SDS011;11026;50.560;17.852;2024-03-02T08:25:24;95.65;;;65.80;;
21727;SDS011;11026;50.560;17.852;2024-03-02T08:27:53;95.75;;;65.03;;
21727;SDS011;11026;50.560;17.852;2024-03-02T08:30:21;91.43;;;63.60;;
21727;SDS011;11026;50.560;17.852;2024-03-02T08:32:51;89.65;;;62.50;;
21727;SDS011;11026;50.560;17.852;2024-03-02T08:35:18;93.68;;;62.40;;
21727;SDS011;11026;50.560;17.852;2024-03-02T08:37:47;86.97;;;59.47;;
21727;SDS011;11026;50.560;17.852;2024-03-02T08:40:15;85.28;;;59.55;;
21727;SDS011;11026;50.560;17.852;2024-03-02T08:42:45;85.57;;;59.22;;
21727;SDS011;11026;50.560;17.852;2024-03-02T08:45:12;79.85;;;53.13;;
21727;SDS011;11026;50.560;17.852;2024-03-02T08:47:42;81.43;;;55.92;;
21727;SDS011;11026;50.560;17.852;2024-03-02T08:50:10;82.20;;;54.92;;
21727;SDS011;11026;50.560;17.852;2024-03-02T08:52:38;74.63;;;50.55;;
21727;SDS011;11026;50.560;17.852;2024-03-02T08:55:06;75.55;;;49.30;;
21727;SDS011;11026;50.560;17.852;2024-03-02T08:57:35;74.10;;;51.53;;
21727;SDS011;11026;50.560;17.852;2024-03-02T09:05:11;71.43;;;49.38;;
21727;SDS011;11026;50.560;17.852;2024-03-02T09:07:39;66.07;;;47.97;;
21727;SDS011;11026;50.560;17.852;2024-03-02T09:10:09;65.03;;;49.13;;
21727;SDS011;11026;50.560;17.852;2024-03-02T09:12:36;68.63;;;49.25;;
21727;SDS011;11026;50.560;17.852;2024-03-02T09:15:05;64.30;;;46.70;;
21727;SDS011;11026;50.560;17.852;2024-03-02T09:17:35;64.88;;;46.33;;
21727;SDS011;11026;50.560;17.852;2024-03-02T09:20:03;66.30;;;46.97;;
21727;SDS011;11026;50.560;17.852;2024-03-02T09:22:31;60.72;;;44.15;;
21727;SDS011;11026;50.560;17.852;2024-03-02T09:25:00;58.33;;;43.20;;
21727;SDS011;11026;50.560;17.852;2024-03-02T09:27:27;61.75;;;42.00;;
21727;SDS011;11026;50.560;17.852;2024-03-02T09:29:55;58.22;;;40.83;;
21727;SDS011;11026;50.560;17.852;2024-03-02T09:32:22;55.35;;;38.83;;
21727;SDS011;11026;50.560;17.852;2024-03-02T09:34:50;50.25;;;38.42;;
21727;SDS011;11026;50.560;17.852;2024-03-02T09:37:17;55.45;;;40.17;;
21727;SDS011;11026;50.560;17.852;2024-03-02T09:39:45;52.80;;;38.15;;
21727;SDS011;11026;50.560;17.852;2024-03-02T09:42:13;51.83;;;37.72;;
21727;SDS011;11026;50.560;17.852;2024-03-02T09:44:42;50.78;;;36.70;;
21727;SDS011;11026;50.560;17.852;2024-03-02T09:47:10;50.80;;;36.53;;
21727;SDS011;11026;50.560;17.852;2024-03-02T09:49:40;56.05;;;38.45;;
21727;SDS011;11026;50.560;17.852;2024-03-02T09:52:08;48.20;;;36.47;;
21727;SDS011;11026;50.560;17.852;2024-03-02T09:54:39;55.85;;;37.05;;
21727;SDS011;11026;50.560;17.852;2024-03-02T09:59:37;45.90;;;34.00;;
21727;SDS011;11026;50.560;17.852;2024-03-02T10:02:04;46.17;;;33.78;;
21727;SDS011;11026;50.560;17.852;2024-03-02T10:04:34;48.15;;;30.30;;
21727;SDS011;11026;50.560;17.852;2024-03-02T10:07:11;42.88;;;30.92;;
21727;SDS011;11026;50.560;17.852;2024-03-02T10:09:46;40.90;;;29.15;;
21727;SDS011;11026;50.560;17.852;2024-03-02T10:12:16;43.88;;;29.05;;
21727;SDS011;11026;50.560;17.852;2024-03-02T10:14:44;44.33;;;30.27;;
21727;SDS011;11026;50.560;17.852;2024-03-02T10:17:13;39.70;;;28.50;;
21727;SDS011;11026;50.560;17.852;2024-03-02T10:22:12;39.88;;;29.05;;
21727;SDS011;11026;50.560;17.852;2024-03-02T10:24:43;40.50;;;29.55;;
21727;SDS011;11026;50.560;17.852;2024-03-02T10:27:16;40.42;;;29.25;;
21727;SDS011;11026;50.560;17.852;2024-03-02T10:29:49;41.63;;;29.70;;
21727;SDS011;11026;50.560;17.852;2024-03-02T10:32:17;41.67;;;31.48;;
21727;SDS011;11026;50.560;17.852;2024-03-02T10:34:45;44.47;;;32.88;;
21727;SDS011;11026;50.560;17.852;2024-03-02T10:37:14;45.92;;;30.88;;
21727;SDS011;11026;50.560;17.852;2024-03-02T10:39:45;45.15;;;32.45;;
21727;SDS011;11026;50.560;17.852;2024-03-02T10:42:13;43.17;;;29.90;;
21727;SDS011;11026;50.560;17.852;2024-03-02T10:44:41;40.05;;;27.05;;
21727;SDS011;11026;50.560;17.852;2024-03-02T10:47:09;44.13;;;30.95;;
21727;SDS011;11026;50.560;17.852;2024-03-02T10:49:42;37.95;;;27.02;;
21727;SDS011;11026;50.560;17.852;2024-03-02T10:52:11;43.70;;;29.67;;
21727;SDS011;11026;50.560;17.852;2024-03-02T10:54:39;43.90;;;29.55;;
21727;SDS011;11026;50.560;17.852;2024-03-02T10:57:13;42.78;;;30.58;;
21727;SDS011;11026;50.560;17.852;2024-03-02T10:59:51;45.55;;;32.95;;
21727;SDS011;11026;50.560;17.852;2024-03-02T11:02:21;47.67;;;34.58;;
21727;SDS011;11026;50.560;17.852;2024-03-02T11:04:51;48.22;;;35.40;;
21727;SDS011;11026;50.560;17.852;2024-03-02T11:07:22;50.63;;;36.83;;
21727;SDS011;11026;50.560;17.852;2024-03-02T11:09:58;52.95;;;38.95;;
21727;SDS011;11026;50.560;17.852;2024-03-02T11:12:36;53.97;;;38.15;;
21727;SDS011;11026;50.560;17.852;2024-03-02T11:15:10;59.97;;;41.78;;
21727;SDS011;11026;50.560;17.852;2024-03-02T11:17:43;60.90;;;41.72;;
21727;SDS011;11026;50.560;17.852;2024-03-02T11:20:12;63.13;;;43.20;;
21727;SDS011;11026;50.560;17.852;2024-03-02T11:22:41;67.55;;;43.38;;
21727;SDS011;11026;50.560;17.852;2024-03-02T11:31:05;58.40;;;41.25;;
21727;SDS011;11026;50.560;17.852;2024-03-02T11:33:13;60.28;;;40.97;;
21727;SDS011;11026;50.560;17.852;2024-03-02T11:38:17;59.90;;;43.22;;
21727;SDS011;11026;50.560;17.852;2024-03-02T11:40:47;59.97;;;42.97;;
21727;SDS011;11026;50.560;17.852;2024-03-02T11:43:14;57.55;;;41.30;;
21727;SDS011;11026;50.560;17.852;2024-03-02T11:45:43;57.83;;;42.08;;
21727;SDS011;11026;50.560;17.852;2024-03-02T11:48:13;53.85;;;40.97;;
21727;SDS011;11026;50.560;17.852;2024-03-02T11:50:42;57.95;;;42.65;;
21727;SDS011;11026;50.560;17.852;2024-03-02T11:53:14;60.70;;;41.65;;
21727;SDS011;11026;50.560;17.852;2024-03-02T11:55:43;57.13;;;40.95;;
21727;SDS011;11026;50.560;17.852;2024-03-02T12:00:50;53.92;;;35.38;;
21727;SDS011;11026;50.560;17.852;2024-03-02T12:03:18;51.00;;;37.03;;
21727;SDS011;11026;50.560;17.852;2024-03-02T12:05:51;46.60;;;35.10;;
21727;SDS011;11026;50.560;17.852;2024-03-02T12:08:22;46.00;;;32.80;;
21727;SDS011;11026;50.560;17.852;2024-03-02T12:11:00;46.75;;;32.60;;
21727;SDS011;11026;50.560;17.852;2024-03-02T12:13:31;46.15;;;32.85;;
21727;SDS011;11026;50.560;17.852;2024-03-02T12:15:58;43.05;;;30.73;;
21727;SDS011;11026;50.560;17.852;2024-03-02T12:18:26;45.28;;;30.58;;
21727;SDS011;11026;50.560;17.852;2024-03-02T12:20:54;41.92;;;31.42;;
21727;SDS011;11026;50.560;17.852;2024-03-02T12:23:26;44.63;;;30.60;;
21727;SDS011;11026;50.560;17.852;2024-03-02T12:25:53;46.70;;;31.27;;
21727;SDS011;11026;50.560;17.852;2024-03-02T12:28:22;42.88;;;30.38;;
21727;SDS011;11026;50.560;17.852;2024-03-02T12:30:49;44.65;;;30.95;;
21727;SDS011;11026;50.560;17.852;2024-03-02T12:33:17;42.03;;;28.67;;
21727;SDS011;11026;50.560;17.852;2024-03-02T12:35:44;42.03;;;28.67;;
21727;SDS011;11026;50.560;17.852;2024-03-02T12:38:11;44.45;;;29.98;;
21727;SDS011;11026;50.560;17.852;2024-03-02T12:40:40;41.83;;;28.73;;
21727;SDS011;11026;50.560;17.852;2024-03-02T12:43:07;40.00;;;27.52;;
21727;SDS011;11026;50.560;17.852;2024-03-02T12:45:34;42.10;;;27.65;;
21727;SDS011;11026;50.560;17.852;2024-03-02T12:48:02;35.83;;;25.15;;
21727;SDS011;11026;50.560;17.852;2024-03-02T12:50:33;40.15;;;26.08;;
21727;SDS011;11026;50.560;17.852;2024-03-02T12:53:00;38.25;;;26.77;;
21727;SDS011;11026;50.560;17.852;2024-03-02T12:55:27;36.38;;;27.17;;
21727;SDS011;11026;50.560;17.852;2024-03-02T12:57:55;38.25;;;26.95;;
21727;SDS011;11026;50.560;17.852;2024-03-02T13:00:26;42.55;;;27.48;;
21727;SDS011;11026;50.560;17.852;2024-03-02T13:02:53;43.03;;;30.38;;
21727;SDS011;11026;50.560;17.852;2024-03-02T13:05:30;42.10;;;30.35;;
21727;SDS011;11026;50.560;17.852;2024-03-02T13:07:58;47.80;;;32.58;;
21727;SDS011;11026;50.560;17.852;2024-03-02T13:10:27;47.17;;;33.25;;
21727;SDS011;11026;50.560;17.852;2024-03-02T13:12:55;48.38;;;35.35;;
21727;SDS011;11026;50.560;17.852;2024-03-02T13:15:28;48.42;;;35.50;;
21727;SDS011;11026;50.560;17.852;2024-03-02T13:17:58;56.85;;;40.85;;
21727;SDS011;11026;50.560;17.852;2024-03-02T13:20:31;63.08;;;44.28;;
21727;SDS011;11026;50.560;17.852;2024-03-02T13:22:59;60.75;;;43.67;;
21727;SDS011;11026;50.560;17.852;2024-03-02T13:25:27;63.40;;;44.80;;
21727;SDS011;11026;50.560;17.852;2024-03-02T13:27:57;60.47;;;43.58;;
21727;SDS011;11026;50.560;17.852;2024-03-02T13:30:26;63.05;;;45.15;;
21727;SDS011;11026;50.560;17.852;2024-03-02T13:32:53;63.97;;;44.83;;
21727;SDS011;11026;50.560;17.852;2024-03-02T13:35:22;61.72;;;41.95;;
21727;SDS011;11026;50.560;17.852;2024-03-02T13:37:50;60.95;;;41.33;;
21727;SDS011;11026;50.560;17.852;2024-03-02T13:40:20;60.78;;;43.30;;
21727;SDS011;11026;50.560;17.852;2024-03-02T13:42:48;63.75;;;42.35;;
21727;SDS011;11026;50.560;17.852;2024-03-02T13:45:17;57.25;;;41.33;;
21727;SDS011;11026;50.560;17.852;2024-03-02T13:47:45;62.25;;;43.97;;
21727;SDS011;11026;50.560;17.852;2024-03-02T13:52:45;61.35;;;43.40;;
21727;SDS011;11026;50.560;17.852;2024-03-02T13:55:15;63.22;;;44.38;;
21727;SDS011;11026;50.560;17.852;2024-03-02T13:57:46;63.33;;;43.65;;
21727;SDS011;11026;50.560;17.852;2024-03-02T14:00:16;65.38;;;45.25;;
21727;SDS011;11026;50.560;17.852;2024-03-02T14:02:47;59.38;;;43.67;;
21727;SDS011;11026;50.560;17.852;2024-03-02T14:07:47;68.57;;;46.05;;
21727;SDS011;11026;50.560;17.852;2024-03-02T14:10:15;65.13;;;44.05;;
21727;SDS011;11026;50.560;17.852;2024-03-02T14:15:13;66.88;;;43.38;;
21727;SDS011;11026;50.560;17.852;2024-03-02T14:17:43;66.20;;;45.42;;
21727;SDS011;11026;50.560;17.852;2024-03-02T14:20:10;66.45;;;43.85;;
21727;SDS011;11026;50.560;17.852;2024-03-02T14:22:40;66.80;;;41.53;;
21727;SDS011;11026;50.560;17.852;2024-03-02T14:25:07;47.42;;;32.92;;
21727;SDS011;11026;50.560;17.852;2024-03-02T14:27:36;35.08;;;26.35;;
21727;SDS011;11026;50.560;17.852;2024-03-02T14:30:23;33.58;;;22.27;;
21727;SDS011;11026;50.560;17.852;2024-03-02T14:35:22;26.27;;;19.63;;
21727;SDS011;11026;50.560;17.852;2024-03-02T14:37:49;22.25;;;17.58;;
21727;SDS011;11026;50.560;17.852;2024-03-02T14:40:17;21.30;;;15.93;;
21727;SDS011;11026;50.560;17.852;2024-03-02T14:42:44;23.42;;;16.65;;
21727;SDS011;11026;50.560;17.852;2024-03-02T14:45:14;19.95;;;14.40;;
21727;SDS011;11026;50.560;17.852;2024-03-02T14:47:42;19.65;;;14.10;;
21727;SDS011;11026;50.560;17.852;2024-03-02T14:50:09;18.10;;;14.15;;
21727;SDS011;11026;50.560;17.852;2024-03-02T14:52:39;17.90;;;12.98;;
21727;SDS011;11026;50.560;17.852;2024-03-02T14:55:10;16.50;;;11.23;;
21727;SDS011;11026;50.560;17.852;2024-03-02T14:57:37;16.90;;;12.45;;
21727;SDS011;11026;50.560;17.852;2024-03-02T15:00:05;16.23;;;11.48;;
21727;SDS011;11026;50.560;17.852;2024-03-02T15:02:37;13.80;;;11.35;;
21727;SDS011;11026;50.560;17.852;2024-03-02T15:05:04;17.38;;;12.38;;
21727;SDS011;11026;50.560;17.852;2024-03-02T15:07:36;18.52;;;13.15;;
21727;SDS011;11026;50.560;17.852;2024-03-02T15:10:03;16.70;;;12.50;;
21727;SDS011;11026;50.560;17.852;2024-03-02T15:12:31;23.13;;;13.52;;
21727;SDS011;11026;50.560;17.852;2024-03-02T15:14:59;18.65;;;14.30;;
21727;SDS011;11026;50.560;17.852;2024-03-02T15:20:03;25.08;;;16.48;;